Oakland, MD

12:01 PM EDT on July 24, 2017 (GMT -0400)
Oakland

Weather History for K2G4 - November, 2012

Change the Weather History Date:

Friday, November 23, 2012

  Actual Average (KMGW) Record (KMGW)
Temperature  
Mean Temperature 38 °F -  
Max Temperature 50 °F 51 °F 78 °F (1979)
Min Temperature 26 °F 31 °F 10 °F (1970)
Degree Days  
Heating Degree Days 27    
Moisture  
Dew Point 32 °F    
Average Humidity 73    
Maximum Humidity 100    
Minimum Humidity 40    
Precipitation  
Precipitation 0.00 in - - ()
Sea Level Pressure  
Sea Level Pressure 29.92 in    
Wind  
Wind Speed 13 mph (WSW)    
Max Wind Speed 20 mph    
Max Gust Speed 32 mph    
Visibility 9 miles    
Events      
Averages and records for this station are not official NWS values.
T = Trace of Precipitation, MM = Missing Value Source: NWS Daily Summary

Daily Weather History Graph

Daily Weather History Graph

Search for Another Location

Airport or City:

Trip Planner

Search our weather history database for the weather conditions in past years. The results will help you decide how hot, cold, wet, or windy it might be!

Date:

Astronomy

Nov. 23, 2012 Rise Set
Actual Time 7:10 AM EST 4:56 PM EST
Civil Twilight 6:41 AM EST 5:25 PM EST
Nautical Twilight 6:08 AM EST 5:58 PM EST
Astronomical Twilight 5:36 AM EST 6:31 PM EST
Moon 2:09 PM EST (11/23) 2:29 AM EST (11/23)
Length of Visible Light 10h 44m
Length of Day
9h 45m
Waxing Gibbous, 79% of the Moon is Illuminated
Nov 23
Waxing Gibbous
Nov 28
Full
Dec 6
Last Quarter
Dec 13
New
Dec 20
First Quarter

Hourly Weather History & Observations

Time (EST) Temp. Windchill Dew Point Humidity Pressure Visibility Wind Dir Wind Speed Gust Speed Precip Events Conditions
12:35 AM 44.6 °F 38.4 °F 23.0 °F 43% 30.06 in 10.0 mi SSW 12.7 mph 17.3 mph N/A   Clear
1:00 AM 44.6 °F 38.4 °F 23.0 °F 43% 30.05 in 10.0 mi SSW 12.7 mph - N/A   Clear
1:20 AM 44.6 °F 39.2 °F 23.0 °F 43% 30.05 in 10.0 mi SSW 10.4 mph - N/A   Clear
1:40 AM 42.8 °F 37.5 °F 23.0 °F 46% 30.06 in 10.0 mi SW 9.2 mph - N/A   Clear
2:00 AM 44.6 °F 39.2 °F 23.0 °F 43% 30.05 in 10.0 mi SW 10.4 mph - N/A   Clear
2:25 AM 44.6 °F 39.7 °F 24.8 °F 46% 30.05 in 10.0 mi SW 9.2 mph 16.1 mph N/A   Scattered Clouds
2:45 AM 44.6 °F 39.2 °F 23.0 °F 43% 30.04 in 10.0 mi SW 10.4 mph 16.1 mph N/A   Scattered Clouds
3:05 AM 46.4 °F 41.1 °F 23.0 °F 40% 30.04 in 10.0 mi SW 11.5 mph 17.3 mph N/A   Clear
3:50 AM 44.6 °F 38.8 °F 24.8 °F 46% 30.02 in 10.0 mi SW 11.5 mph 18.4 mph N/A   Clear
4:10 AM 44.6 °F 38.4 °F 26.6 °F 49% 30.02 in 10.0 mi SW 12.7 mph - N/A   Clear
4:30 AM 44.6 °F 38.4 °F 28.4 °F 53% 30.01 in 10.0 mi SW 12.7 mph 19.6 mph N/A   Clear
4:50 AM 44.6 °F 38.1 °F 28.4 °F 53% 30.01 in 10.0 mi SW 13.8 mph 18.4 mph N/A   Clear
5:15 AM 44.6 °F 38.4 °F 30.2 °F 57% 30.00 in 10.0 mi SW 12.7 mph 20.7 mph N/A   Clear
5:35 AM 44.6 °F 38.1 °F 30.2 °F 57% 29.99 in 10.0 mi SW 13.8 mph 19.6 mph N/A   Clear
5:55 AM 44.6 °F 39.2 °F 32.0 °F 61% 29.99 in 10.0 mi SW 10.4 mph 18.4 mph N/A   Clear
6:15 AM 44.6 °F 38.8 °F 32.0 °F 61% 29.98 in 10.0 mi SW 11.5 mph 17.3 mph N/A   Clear
6:40 AM 44.6 °F 37.8 °F 33.8 °F 66% 29.97 in 10.0 mi SW 15.0 mph 19.6 mph N/A   Clear
7:00 AM 44.6 °F 38.4 °F 33.8 °F 66% 29.97 in 10.0 mi SW 12.7 mph 19.6 mph N/A   Clear
7:20 AM 44.6 °F 38.8 °F 33.8 °F 66% 29.96 in 10.0 mi SW 11.5 mph 20.7 mph N/A   Clear
7:40 AM 44.6 °F 38.4 °F 33.8 °F 66% 29.96 in 10.0 mi SW 12.7 mph 18.4 mph N/A   Clear
8:05 AM 44.6 °F 38.4 °F 33.8 °F 66% 29.95 in 10.0 mi WSW 12.7 mph 20.7 mph N/A   Clear
8:25 AM 44.6 °F 37.8 °F 33.8 °F 66% 29.94 in 10.0 mi SW 15.0 mph 23.0 mph N/A   Clear
8:45 AM 44.6 °F 38.1 °F 33.8 °F 66% 29.93 in 10.0 mi SW 13.8 mph 27.6 mph N/A   Clear
9:05 AM 46.4 °F 39.8 °F 35.6 °F 66% 29.92 in 10.0 mi SW 16.1 mph 20.7 mph N/A   Clear
9:30 AM 46.4 °F 39.8 °F 35.6 °F 66% 29.92 in 10.0 mi SW 16.1 mph 24.2 mph N/A   Scattered Clouds
9:50 AM 48.2 °F - 35.6 °F 62% 29.92 in 10.0 mi SW 12.7 mph 19.6 mph N/A   Scattered Clouds
10:10 AM 50.0 °F - 35.6 °F 58% 29.91 in 10.0 mi SW 13.8 mph 21.9 mph N/A   Scattered Clouds
10:55 AM 50.0 °F - 37.4 °F 62% 29.90 in 10.0 mi SW 13.8 mph 20.7 mph N/A   Overcast
11:15 AM 48.2 °F - 37.4 °F 66% 29.88 in 10.0 mi SW 15.0 mph 23.0 mph N/A   Overcast
11:35 AM 46.4 °F 41.5 °F 39.2 °F 76% 29.87 in 10.0 mi SW 10.4 mph 18.4 mph N/A   Overcast
11:55 AM 46.4 °F 40.7 °F 39.2 °F 76% 29.87 in 10.0 mi SW 12.7 mph 23.0 mph N/A   Overcast
12:20 PM 44.6 °F 39.2 °F 41.0 °F 87% 29.86 in 7.0 mi WSW 10.4 mph 24.2 mph N/A   Overcast
1:20 PM 42.8 °F 36.2 °F 42.8 °F 100% 29.84 in 3.0 mi WSW 12.7 mph 23.0 mph N/A   Overcast
1:45 PM 42.8 °F 36.6 °F 42.8 °F 100% 29.83 in 3.0 mi WSW 11.5 mph 19.6 mph N/A   Overcast
2:05 PM 42.8 °F 34.5 °F 42.8 °F 100% 29.83 in 2.5 mi WSW 18.4 mph 27.6 mph N/A   Overcast
2:25 PM 42.8 °F 36.2 °F 42.8 °F 100% 29.82 in 1.8 mi WSW 12.7 mph 24.2 mph N/A   Overcast
3:10 PM 42.8 °F 37.5 °F 42.8 °F 100% 29.81 in 1.2 mi WSW 9.2 mph 18.4 mph N/A   Overcast
3:30 PM 42.8 °F 37.0 °F 42.8 °F 100% 29.81 in 1.5 mi WSW 10.4 mph 18.4 mph N/A   Overcast
4:10 PM 41.0 °F 34.3 °F 41.0 °F 100% 29.81 in 3.0 mi WSW 11.5 mph 21.9 mph N/A   Overcast
4:35 PM 41.0 °F 34.3 °F 41.0 °F 100% 29.81 in 10.0 mi WSW 11.5 mph 18.4 mph N/A   Overcast
4:55 PM 41.0 °F 34.7 °F 41.0 °F 100% 29.81 in 10.0 mi WSW 10.4 mph 19.6 mph N/A   Overcast
5:15 PM 39.2 °F 30.5 °F 37.4 °F 93% 29.83 in 10.0 mi WSW 16.1 mph 23.0 mph N/A   Mostly Cloudy
5:35 PM 37.4 °F 28.5 °F 37.4 °F 100% 29.83 in 10.0 mi West 15.0 mph 24.2 mph N/A   Mostly Cloudy
6:00 PM 37.4 °F 28.5 °F 33.8 °F 87% 29.84 in 10.0 mi West 15.0 mph 23.0 mph N/A   Clear
7:00 PM 35.6 °F 26.2 °F 32.0 °F 87% 29.84 in 10.0 mi West 15.0 mph 21.9 mph N/A   Mostly Cloudy
7:25 PM 35.6 °F 25.5 °F 32.0 °F 87% 29.85 in 10.0 mi WNW 17.3 mph 26.5 mph N/A   Overcast
7:45 PM 33.8 °F 23.5 °F 30.2 °F 87% 29.86 in 10.0 mi WNW 16.1 mph 27.6 mph N/A   Overcast
8:05 PM 32.0 °F 20.5 °F 28.4 °F 87% 29.87 in 10.0 mi WNW 18.4 mph 31.1 mph N/A   Overcast
8:25 PM 32.0 °F 22.5 °F 28.4 °F 87% 29.87 in 10.0 mi WNW 12.7 mph 28.8 mph N/A   Overcast
8:50 PM 30.2 °F 20.2 °F 26.6 °F 86% 29.87 in 10.0 mi West 12.7 mph 28.8 mph N/A   Overcast
9:10 PM 30.2 °F 20.2 °F 26.6 °F 86% 29.86 in 10.0 mi WNW 12.7 mph 26.5 mph N/A   Overcast
9:30 PM 30.2 °F 17.8 °F 26.6 °F 86% 29.87 in 10.0 mi WNW 19.6 mph 26.5 mph N/A   Overcast
9:50 PM 28.4 °F 15.8 °F 26.6 °F 93% 29.86 in 10.0 mi WNW 18.4 mph 26.5 mph N/A   Overcast
10:15 PM 28.4 °F 15.4 °F 24.8 °F 86% 29.86 in 10.0 mi West 19.6 mph 28.8 mph N/A   Overcast
10:35 PM 26.6 °F 14.3 °F 23.0 °F 86% 29.86 in 10.0 mi WNW 16.1 mph 32.2 mph N/A   Overcast
10:55 PM 26.6 °F 13.8 °F 23.0 °F 86% 29.86 in 10.0 mi West 17.3 mph 25.3 mph N/A   Overcast
11:15 PM 26.6 °F 14.7 °F 21.2 °F 80% 29.87 in 10.0 mi WNW 15.0 mph 29.9 mph N/A   Overcast
11:40 PM 26.6 °F 14.7 °F 19.4 °F 74% 29.87 in 10.0 mi WNW 15.0 mph 29.9 mph N/A   Overcast